createdAt,value
2018-10-19T00:00:53.907Z,6.00
2018-10-19T00:01:53.827Z,5.30
2018-10-19T00:02:53.811Z,5.00
2018-10-19T00:03:53.764Z,5.20
2018-10-19T00:04:53.755Z,5.10
2018-10-19T00:05:53.711Z,5.60
2018-10-19T00:06:53.686Z,5.70
2018-10-19T00:07:53.649Z,5.60
2018-10-19T00:08:53.625Z,5.80
2018-10-19T00:09:53.591Z,5.70
2018-10-19T00:10:53.608Z,6.00
2018-10-19T00:11:53.530Z,6.00
2018-10-19T00:12:53.556Z,5.60
2018-10-19T00:13:53.476Z,5.20
2018-10-19T00:14:53.453Z,5.80
2018-10-19T00:15:53.417Z,5.90
2018-10-19T00:16:53.409Z,5.40
2018-10-19T00:17:53.357Z,5.40
2018-10-19T00:18:53.329Z,4.80
2018-10-19T00:19:53.302Z,5.60
2018-10-19T00:20:53.272Z,5.50
2018-10-19T00:21:53.243Z,5.70
2018-10-19T00:22:53.263Z,5.50
2018-10-19T00:23:53.185Z,5.50
2018-10-19T00:24:53.167Z,5.90
2018-10-19T00:25:53.127Z,5.60
2018-10-19T00:26:53.098Z,5.50
2018-10-19T00:27:53.073Z,5.50
2018-10-19T00:28:53.091Z,5.80
2018-10-19T00:29:53.014Z,5.60
2018-10-19T00:30:52.978Z,6.10
2018-10-19T00:31:52.952Z,5.60
2018-10-19T00:32:52.919Z,5.90
2018-10-19T00:33:52.896Z,5.90
2018-10-19T00:34:52.867Z,5.70
2018-10-19T00:35:53.036Z,6.10
2018-10-19T00:36:52.885Z,6.00
2018-10-19T00:37:52.778Z,5.70
2018-10-19T00:38:52.752Z,5.90
2018-10-19T00:39:52.917Z,6.00
2018-10-19T00:40:52.893Z,6.00
2018-10-19T00:41:52.660Z,6.30
2018-10-19T00:42:52.628Z,6.50
2018-10-19T00:43:52.598Z,5.90
2018-10-19T00:44:52.573Z,6.60
2018-10-19T00:45:52.542Z,6.20
2018-10-19T00:46:52.526Z,6.40
2018-10-19T00:47:52.485Z,6.20
2018-10-19T00:48:52.656Z,6.30
2018-10-19T00:49:52.625Z,6.30
2018-10-19T00:50:52.407Z,6.10
2018-10-19T00:51:52.364Z,6.20
2018-10-19T00:52:52.382Z,6.10
2018-10-19T00:53:52.311Z,6.10
2018-10-19T00:54:52.480Z,6.10
2018-10-19T00:55:52.269Z,5.80
2018-10-19T00:56:52.219Z,6.50
2018-10-19T00:57:52.191Z,7.50
2018-10-19T00:58:52.394Z,6.70
2018-10-19T00:59:52.131Z,6.70
2018-10-19T01:00:52.102Z,6.60
2018-10-19T01:01:52.677Z,6.80
2018-10-19T01:02:52.099Z,6.50
2018-10-19T01:03:52.011Z,5.90
2018-10-19T01:04:52.002Z,6.60
2018-10-19T01:05:51.955Z,6.50
2018-10-19T01:06:51.925Z,6.70
2018-10-19T01:07:51.895Z,6.50
2018-10-19T01:08:51.870Z,6.80
2018-10-19T01:09:51.835Z,6.70
2018-10-19T01:10:51.828Z,6.50
2018-10-19T01:11:51.777Z,6.60
2018-10-19T01:12:51.746Z,6.20
2018-10-19T01:13:51.717Z,6.10
2018-10-19T01:14:51.688Z,6.30
2018-10-19T01:15:51.656Z,6.50
2018-10-19T01:16:51.629Z,6.60
2018-10-19T01:17:51.600Z,6.20
2018-10-19T01:18:51.573Z,6.30
2018-10-19T01:19:51.543Z,6.30
2018-10-19T01:20:51.512Z,6.10
2018-10-19T01:21:51.482Z,6.50
2018-10-19T01:22:51.451Z,6.60
2018-10-19T01:23:51.422Z,6.50
2018-10-19T01:24:51.393Z,6.80
2018-10-19T01:25:51.365Z,6.30
2018-10-19T01:26:51.337Z,6.30
2018-10-19T01:27:51.316Z,7.00
2018-10-19T01:28:51.277Z,6.60
2018-10-19T01:29:51.249Z,6.80
2018-10-19T01:30:51.218Z,7.10
2018-10-19T01:31:51.189Z,6.90
2018-10-19T01:32:51.160Z,6.10
2018-10-19T01:33:51.134Z,5.80
2018-10-19T01:34:51.099Z,6.60
2018-10-19T01:35:51.073Z,6.80
2018-10-19T01:36:51.040Z,6.20
2018-10-19T01:37:51.013Z,6.50
2018-10-19T01:38:50.986Z,7.00
2018-10-19T01:39:50.953Z,6.80
2018-10-19T01:40:50.927Z,6.80
2018-10-19T01:41:50.896Z,6.80
2018-10-19T01:42:50.863Z,7.10
2018-10-19T01:43:50.834Z,6.70
2018-10-19T01:44:50.807Z,6.60
2018-10-19T01:45:50.776Z,6.40
2018-10-19T01:46:50.745Z,6.90
2018-10-19T01:47:50.716Z,6.90
2018-10-19T01:48:50.687Z,6.60
2018-10-19T01:49:50.660Z,6.80
2018-10-19T01:50:50.839Z,6.60
2018-10-19T01:51:50.804Z,6.30
2018-10-19T01:52:50.569Z,6.20
2018-10-19T01:53:50.538Z,6.70
2018-10-19T01:54:50.515Z,6.70
2018-10-19T01:55:50.478Z,7.20
2018-10-19T01:56:50.449Z,6.10
2018-10-19T01:57:50.422Z,6.70
2018-10-19T01:58:50.393Z,6.90
2018-10-19T01:59:50.362Z,7.60
2018-10-19T02:00:50.333Z,7.00
2018-10-19T02:01:50.303Z,7.50
2018-10-19T02:02:50.273Z,6.90
2018-10-19T02:03:50.244Z,6.90
2018-10-19T02:04:50.216Z,6.60
2018-10-19T02:05:50.183Z,7.10
2018-10-19T02:06:50.153Z,6.60
2018-10-19T02:07:50.124Z,7.40
2018-10-19T02:08:50.143Z,7.30
2018-10-19T02:09:50.067Z,7.10
2018-10-19T02:10:50.039Z,7.20
2018-10-19T02:11:50.005Z,6.60
2018-10-19T02:12:49.982Z,6.50
2018-10-19T02:13:49.947Z,7.10
2018-10-19T02:14:49.917Z,6.70
2018-10-19T02:15:49.886Z,7.00
2018-10-19T02:16:49.859Z,6.30
2018-10-19T02:17:49.835Z,7.40
2018-10-19T02:18:49.801Z,6.60
2018-10-19T02:19:50.872Z,7.20
2018-10-19T02:20:49.740Z,7.50
2018-10-19T02:21:49.711Z,7.60
2018-10-19T02:22:49.679Z,7.00
2018-10-19T02:23:49.648Z,7.70
2018-10-19T02:24:49.619Z,7.10
2018-10-19T02:25:49.592Z,7.50
2018-10-19T02:26:49.563Z,7.20
2018-10-19T02:27:49.532Z,8.00
2018-10-19T02:28:49.508Z,7.00
2018-10-19T02:29:49.472Z,7.10
2018-10-19T02:30:49.443Z,7.90
2018-10-19T02:31:49.410Z,7.70
2018-10-19T02:32:49.386Z,7.60
2018-10-19T02:33:49.367Z,7.50
2018-10-19T02:34:49.329Z,7.80
2018-10-19T02:35:49.293Z,7.20
2018-10-19T02:36:49.266Z,7.20
2018-10-19T02:37:49.489Z,7.60
2018-10-19T02:38:49.206Z,7.60
2018-10-19T02:39:49.177Z,7.10
2018-10-19T02:40:49.149Z,7.40
2018-10-19T02:41:49.115Z,7.50
2018-10-19T02:42:49.089Z,8.60
2018-10-19T02:43:49.055Z,8.10
2018-10-19T02:44:49.027Z,7.30
2018-10-19T02:45:48.998Z,7.90
2018-10-19T02:46:49.171Z,7.30
2018-10-19T02:47:48.965Z,8.00
2018-10-19T02:48:48.909Z,7.70
2018-10-19T02:49:49.081Z,7.60
2018-10-19T02:50:48.852Z,7.60
2018-10-19T02:51:48.820Z,7.50
2018-10-19T02:52:48.790Z,7.20
2018-10-19T02:53:48.960Z,8.00
2018-10-19T02:54:48.728Z,7.50
2018-10-19T02:55:48.903Z,7.50
2018-10-19T02:56:48.669Z,7.80
2018-10-19T02:57:48.640Z,8.00
2018-10-19T02:58:48.824Z,8.50
2018-10-19T02:59:48.581Z,7.90
2018-10-19T03:00:48.552Z,8.00
2018-10-19T03:01:48.523Z,8.00
2018-10-19T03:02:48.490Z,8.00
2018-10-19T03:03:48.460Z,8.30
2018-10-19T03:04:48.430Z,8.60
2018-10-19T03:05:48.400Z,8.50
2018-10-19T03:06:48.573Z,8.00
2018-10-19T03:07:48.345Z,8.50
2018-10-19T03:08:48.310Z,8.20
2018-10-19T03:09:48.290Z,8.10
2018-10-19T03:10:48.255Z,8.40
2018-10-19T03:11:48.225Z,7.80
2018-10-19T03:12:48.244Z,9.00
2018-10-19T03:13:48.162Z,8.30
2018-10-19T03:14:48.135Z,8.00
2018-10-19T03:15:48.101Z,7.80
2018-10-19T03:16:48.072Z,8.80
2018-10-19T03:17:48.045Z,9.40
2018-10-19T03:18:48.015Z,8.70
2018-10-19T03:19:47.983Z,9.20
2018-10-19T03:20:47.954Z,9.30
2018-10-19T03:21:47.924Z,9.40
2018-10-19T03:22:47.895Z,9.20
2018-10-19T03:23:47.863Z,9.60
2018-10-19T03:24:47.834Z,9.40
2018-10-19T03:25:47.808Z,8.80
2018-10-19T03:26:47.772Z,8.90
2018-10-19T03:27:47.742Z,8.80
2018-10-19T03:28:47.726Z,8.90
2018-10-19T03:29:47.684Z,9.30
2018-10-19T03:30:47.675Z,9.20
2018-10-19T03:31:47.624Z,9.10
2018-10-19T03:32:47.594Z,9.40
2018-10-19T03:33:47.562Z,9.40
2018-10-19T03:34:47.532Z,9.40
2018-10-19T03:35:47.503Z,9.60
2018-10-19T03:36:47.474Z,9.70
2018-10-19T03:37:47.645Z,10.00
2018-10-19T03:38:47.616Z,9.90
2018-10-19T03:39:47.398Z,9.50
2018-10-19T03:40:47.354Z,9.70
2018-10-19T03:41:47.323Z,10.10
2018-10-19T03:42:47.294Z,9.20
2018-10-19T03:43:47.263Z,9.70
2018-10-19T03:44:47.232Z,9.30
2018-10-19T03:45:47.403Z,10.30
2018-10-19T03:46:47.173Z,9.80
2018-10-19T03:47:47.141Z,9.50
2018-10-19T03:48:47.362Z,9.90
2018-10-19T03:49:47.082Z,10.20
2018-10-19T03:50:47.066Z,10.30
2018-10-19T03:51:47.022Z,10.00
2018-10-19T03:52:46.996Z,9.80
2018-10-19T03:53:46.963Z,9.90
2018-10-19T03:54:46.933Z,9.60
2018-10-19T03:55:47.104Z,9.80
2018-10-19T03:56:46.877Z,9.70
2018-10-19T03:57:46.847Z,10.00
2018-10-19T03:58:46.844Z,9.70
2018-10-19T03:59:46.779Z,9.70
2018-10-19T04:00:46.752Z,9.60
2018-10-19T04:01:46.722Z,9.90
2018-10-19T04:02:46.695Z,9.80
2018-10-19T04:03:46.705Z,10.10
2018-10-19T04:04:46.634Z,9.80
2018-10-19T04:05:46.600Z,9.60
2018-10-19T04:06:46.571Z,9.60
2018-10-19T04:07:46.540Z,9.50
2018-10-19T04:08:46.512Z,9.10
2018-10-19T04:09:46.481Z,9.10
2018-10-19T04:10:46.454Z,9.00
2018-10-19T04:11:46.420Z,9.20
2018-10-19T04:12:46.394Z,9.60
2018-10-19T04:13:46.365Z,9.80
2018-10-19T04:14:46.333Z,9.40
2018-10-19T04:15:46.505Z,9.70
2018-10-19T04:16:46.272Z,8.90
2018-10-19T04:17:46.246Z,9.20
2018-10-19T04:18:46.211Z,8.70
2018-10-19T04:19:46.180Z,8.90
2018-10-19T04:20:46.151Z,8.80
2018-10-19T04:21:46.124Z,9.10
2018-10-19T04:22:46.296Z,8.40
2018-10-19T04:23:46.064Z,8.80
2018-10-19T04:24:46.034Z,8.60
2018-10-19T04:25:46.005Z,9.00
2018-10-19T04:26:45.973Z,8.80
2018-10-19T04:27:46.191Z,8.00
2018-10-19T04:28:45.915Z,9.20
2018-10-19T04:29:45.887Z,8.50
2018-10-19T04:30:45.861Z,8.50
2018-10-19T04:31:45.826Z,8.70
2018-10-19T04:32:45.798Z,8.60
2018-10-19T04:33:45.770Z,8.50
2018-10-19T04:34:45.742Z,8.70
2018-10-19T04:35:45.706Z,7.80
2018-10-19T04:36:45.679Z,8.40
2018-10-19T04:37:45.654Z,8.40
2018-10-19T04:38:45.619Z,8.40
2018-10-19T04:39:45.592Z,8.20
2018-10-19T04:40:45.566Z,8.30
2018-10-19T04:41:45.686Z,7.80
2018-10-19T04:42:45.502Z,7.90
2018-10-19T04:43:45.477Z,8.60
2018-10-19T04:44:45.441Z,7.80
2018-10-19T04:45:45.412Z,8.00
2018-10-19T04:46:45.388Z,8.70
2018-10-19T04:47:45.428Z,7.90
2018-10-19T04:48:45.324Z,7.90
2018-10-19T04:49:45.298Z,8.30
2018-10-19T04:50:45.269Z,7.80
2018-10-19T04:51:45.242Z,7.80
2018-10-19T04:52:45.211Z,8.30
2018-10-19T04:53:45.265Z,8.30
2018-10-19T04:54:45.151Z,8.60
2018-10-19T04:55:45.117Z,8.00
2018-10-19T04:56:45.092Z,7.80
2018-10-19T04:57:45.059Z,8.30
2018-10-19T04:58:45.030Z,9.50
2018-10-19T04:59:45.009Z,9.00
2018-10-19T05:00:44.973Z,8.60
2018-10-19T05:01:44.944Z,8.70
2018-10-19T05:02:45.062Z,8.50
2018-10-19T05:03:44.885Z,8.60
2018-10-19T05:04:44.965Z,9.20
2018-10-19T05:05:44.863Z,8.30
2018-10-19T05:06:44.867Z,9.40
2018-10-19T05:07:44.770Z,8.70
2018-10-19T05:08:44.766Z,9.10
2018-10-19T05:09:44.709Z,8.20
2018-10-19T05:10:44.680Z,8.30
2018-10-19T05:11:44.649Z,8.10
2018-10-19T05:12:44.641Z,7.70
2018-10-19T05:13:44.592Z,8.20
2018-10-19T05:14:44.563Z,9.10
2018-10-19T05:15:44.535Z,7.90
2018-10-19T05:16:44.504Z,7.60
2018-10-19T05:17:44.474Z,7.90
2018-10-19T05:18:44.444Z,8.50
2018-10-19T05:19:44.414Z,8.70
2018-10-19T05:20:44.385Z,8.30
2018-10-19T05:21:44.357Z,7.80
2018-10-19T05:22:44.328Z,8.00
2018-10-19T05:23:44.301Z,8.80
2018-10-19T05:24:44.392Z,8.40
2018-10-19T05:25:44.238Z,8.00
2018-10-19T05:26:44.208Z,8.50
2018-10-19T05:27:44.178Z,7.90
2018-10-19T05:28:44.150Z,8.40
2018-10-19T05:29:44.129Z,8.00
2018-10-19T05:30:44.097Z,8.20
2018-10-19T05:31:44.076Z,7.40
2018-10-19T05:32:44.098Z,7.60
2018-10-19T05:33:44.003Z,7.60
2018-10-19T05:34:43.974Z,8.10
2018-10-19T05:35:43.948Z,7.90
2018-10-19T05:36:43.916Z,8.00
2018-10-19T05:37:43.888Z,7.20
2018-10-19T05:38:43.909Z,7.90
2018-10-19T05:39:43.830Z,7.40
2018-10-19T05:40:43.801Z,7.50
2018-10-19T05:41:43.770Z,7.60
2018-10-19T05:42:43.739Z,8.00
2018-10-19T05:43:43.825Z,8.40
2018-10-19T05:44:43.680Z,8.50
2018-10-19T05:45:43.651Z,7.20
2018-10-19T05:46:43.622Z,8.10
2018-10-19T05:47:43.591Z,8.60
2018-10-19T05:48:43.573Z,8.20
2018-10-19T05:49:43.739Z,8.00
2018-10-19T05:50:43.507Z,7.80
2018-10-19T05:51:43.477Z,8.50
2018-10-19T05:52:43.450Z,7.70
2018-10-19T05:53:43.418Z,8.90
2018-10-19T05:54:43.389Z,8.50
2018-10-19T05:55:43.359Z,8.10
2018-10-19T05:56:43.329Z,8.30
2018-10-19T05:57:43.303Z,8.20
2018-10-19T05:58:43.273Z,8.40
2018-10-19T05:59:43.261Z,8.20
2018-10-19T06:00:43.213Z,8.60
2018-10-19T06:01:43.186Z,8.20
2018-10-19T06:02:43.214Z,8.30
2018-10-19T06:03:43.125Z,8.00
2018-10-19T06:04:43.099Z,8.40
2018-10-19T06:05:43.066Z,7.80
2018-10-19T06:06:43.037Z,9.00
2018-10-19T06:07:43.010Z,8.10
2018-10-19T06:08:42.980Z,8.20
2018-10-19T06:09:42.952Z,8.60
2018-10-19T06:10:42.923Z,8.00
2018-10-19T06:11:42.892Z,8.70
2018-10-19T06:12:42.864Z,8.10
2018-10-19T06:13:42.930Z,8.40
2018-10-19T06:14:42.805Z,7.30
2018-10-19T06:15:42.779Z,7.70
2018-10-19T06:16:42.745Z,8.40
2018-10-19T06:17:42.717Z,7.20
2018-10-19T06:18:42.692Z,8.50
2018-10-19T06:19:42.657Z,7.70
2018-10-19T06:20:42.629Z,8.00
2018-10-19T06:21:42.602Z,7.70
2018-10-19T06:22:42.576Z,8.40
2018-10-19T06:23:42.543Z,8.00
2018-10-19T06:24:42.515Z,8.30
2018-10-19T06:25:42.516Z,8.80
2018-10-19T06:26:42.455Z,8.30
2018-10-19T06:27:42.427Z,7.60
2018-10-19T06:28:42.599Z,8.20
2018-10-19T06:29:42.371Z,8.60
2018-10-19T06:30:42.345Z,8.00
2018-10-19T06:31:42.315Z,8.10
2018-10-19T06:32:42.284Z,9.10
2018-10-19T06:33:42.312Z,8.60
2018-10-19T06:34:42.224Z,8.70
2018-10-19T06:35:42.201Z,7.90
2018-10-19T06:36:42.165Z,8.40
2018-10-19T06:37:42.139Z,7.60
2018-10-19T06:38:42.113Z,8.10
2018-10-19T06:39:42.082Z,7.70
2018-10-19T06:40:42.093Z,7.70
2018-10-19T06:41:42.223Z,8.20
2018-10-19T06:42:41.996Z,8.00
2018-10-19T06:43:41.963Z,8.60
2018-10-19T06:44:41.934Z,8.00
2018-10-19T06:45:41.907Z,8.50
2018-10-19T06:46:41.935Z,8.20
2018-10-19T06:47:41.852Z,8.30
2018-10-19T06:48:41.827Z,8.80
2018-10-19T06:49:41.793Z,8.00
2018-10-19T06:50:41.764Z,8.40
2018-10-19T06:51:41.735Z,7.90
2018-10-19T06:52:41.705Z,8.60
2018-10-19T06:53:41.675Z,8.50
2018-10-19T06:54:41.645Z,8.10
2018-10-19T06:55:41.619Z,8.50
2018-10-19T06:56:41.596Z,8.70
2018-10-19T06:57:41.590Z,9.00
2018-10-19T06:58:41.534Z,8.70
2018-10-19T06:59:41.507Z,8.40
2018-10-19T07:00:41.475Z,8.50
2018-10-19T07:01:41.445Z,8.60
2018-10-19T07:02:41.418Z,9.30
2018-10-19T07:03:41.389Z,8.70
2018-10-19T07:04:41.360Z,8.50
2018-10-19T07:05:41.422Z,8.30
2018-10-19T07:06:41.302Z,7.90
2018-10-19T07:07:41.272Z,8.70
2018-10-19T07:08:41.246Z,7.80
2018-10-19T07:09:41.219Z,7.80
2018-10-19T07:10:41.194Z,9.10
2018-10-19T07:11:41.161Z,8.20
2018-10-19T07:12:41.134Z,8.70
2018-10-19T07:13:41.101Z,8.80
2018-10-19T07:14:41.077Z,8.50
2018-10-19T07:15:41.049Z,8.10
2018-10-19T07:16:41.028Z,8.20
2018-10-19T07:17:40.998Z,8.10
2018-10-19T07:18:40.961Z,9.20
2018-10-19T07:19:41.135Z,7.70
2018-10-19T07:20:40.904Z,8.40
2018-10-19T07:21:40.937Z,9.10
2018-10-19T07:22:40.847Z,8.90
2018-10-19T07:23:41.019Z,9.10
2018-10-19T07:24:40.998Z,8.30
2018-10-19T07:25:40.758Z,8.20
2018-10-19T07:26:40.730Z,9.30
2018-10-19T07:27:40.904Z,8.80
2018-10-19T07:28:40.698Z,8.00
2018-10-19T07:29:40.801Z,8.90
2018-10-19T07:30:40.635Z,9.10
2018-10-19T07:31:40.794Z,7.80
2018-10-19T07:32:40.767Z,9.10
2018-10-19T07:33:40.737Z,7.80
2018-10-19T07:34:40.505Z,8.60
2018-10-19T07:35:40.479Z,8.30
2018-10-19T07:36:40.650Z,8.80
2018-10-19T07:37:40.622Z,9.10
2018-10-19T07:38:40.594Z,8.90
2018-10-19T07:39:40.371Z,8.10
2018-10-19T07:40:40.541Z,7.60
2018-10-19T07:41:40.516Z,7.70
2018-10-19T07:42:40.286Z,8.40
2018-10-19T07:43:40.254Z,7.90
2018-10-19T07:44:40.428Z,8.50
2018-10-19T07:45:40.405Z,7.60
2018-10-19T07:46:40.372Z,7.40
2018-10-19T07:47:40.164Z,7.40
2018-10-19T07:48:40.120Z,7.20
2018-10-19T07:49:40.088Z,8.00
2018-10-19T07:50:40.269Z,7.90
2018-10-19T07:51:40.032Z,7.90
2018-10-19T07:52:41.016Z,7.60
2018-10-19T07:53:39.977Z,7.90
2018-10-19T07:54:39.951Z,7.80
2018-10-19T07:55:39.920Z,7.60
2018-10-19T07:56:39.895Z,8.50
2018-10-19T07:57:39.864Z,7.60
2018-10-19T07:58:39.842Z,7.80
2018-10-19T07:59:40.012Z,7.90
2018-10-19T08:00:39.785Z,7.70
2018-10-19T08:01:39.757Z,7.50
2018-10-19T08:02:39.729Z,8.20
2018-10-19T08:03:39.704Z,7.90
2018-10-19T08:04:39.674Z,8.30
2018-10-19T08:05:39.848Z,8.70
2018-10-19T08:06:39.624Z,7.60
2018-10-19T08:07:39.792Z,8.40
2018-10-19T08:08:39.564Z,8.00
2018-10-19T08:09:39.739Z,7.80
2018-10-19T08:10:39.511Z,7.80
2018-10-19T08:11:39.755Z,8.40
2018-10-19T08:12:39.455Z,7.70
2018-10-19T08:13:39.633Z,7.80
2018-10-19T08:14:39.436Z,7.80
2018-10-19T08:15:39.578Z,7.40
2018-10-19T08:16:39.349Z,7.30
2018-10-19T08:17:39.322Z,7.20
2018-10-19T08:18:39.300Z,7.10
2018-10-19T08:19:39.267Z,6.70
2018-10-19T08:20:39.246Z,7.00
2018-10-19T08:21:39.217Z,7.00
2018-10-19T08:22:39.192Z,7.00
2018-10-19T08:23:39.168Z,6.70
2018-10-19T08:24:39.138Z,6.00
2018-10-19T08:25:39.119Z,7.10
2018-10-19T08:26:39.087Z,7.30
2018-10-19T08:27:39.060Z,7.90
2018-10-19T08:28:39.043Z,7.60
2018-10-19T08:29:39.003Z,6.30
2018-10-19T08:30:38.978Z,7.00
2018-10-19T08:31:38.951Z,7.20
2018-10-19T08:32:38.925Z,7.60
2018-10-19T08:33:38.902Z,7.30
2018-10-19T08:34:38.879Z,6.50
2018-10-19T08:35:38.847Z,6.90
2018-10-19T08:36:38.823Z,6.80
2018-10-19T08:37:38.828Z,6.70
2018-10-19T08:38:38.772Z,7.00
2018-10-19T08:39:38.747Z,7.50
2018-10-19T08:40:38.919Z,6.50
2018-10-19T08:41:38.904Z,7.50
2018-10-19T08:42:38.870Z,7.00
2018-10-19T08:43:38.642Z,6.40
2018-10-19T08:44:38.820Z,7.20
2018-10-19T08:45:38.590Z,6.60
2018-10-19T08:46:38.765Z,5.70
2018-10-19T08:47:39.834Z,6.00
2018-10-19T08:48:38.513Z,6.40
2018-10-19T08:49:38.488Z,6.50
2018-10-19T08:50:38.464Z,6.70
2018-10-19T08:51:39.248Z,6.40
2018-10-19T08:52:38.413Z,6.60
2018-10-19T08:53:38.637Z,6.00
2018-10-19T08:54:38.374Z,6.40
2018-10-19T08:55:38.387Z,6.20
2018-10-19T08:56:38.314Z,6.40
2018-10-19T08:57:38.547Z,5.60
2018-10-19T08:58:38.465Z,5.70
2018-10-19T08:59:38.440Z,5.60
2018-10-19T09:00:38.415Z,6.70
2018-10-19T09:01:38.191Z,6.30
2018-10-19T09:02:38.375Z,6.20
2018-10-19T09:03:38.386Z,6.00
2018-10-19T09:04:38.118Z,6.10
2018-10-19T09:05:38.297Z,6.40
2018-10-19T09:06:38.270Z,6.30
2018-10-19T09:07:38.093Z,6.10
2018-10-19T09:08:38.020Z,6.40
2018-10-19T09:09:37.999Z,6.30
2018-10-19T09:10:37.978Z,6.60
2018-10-19T09:11:37.980Z,6.10
2018-10-19T09:12:38.308Z,6.50
2018-10-19T09:13:37.906Z,5.70
2018-10-19T09:14:37.893Z,6.40
2018-10-19T09:15:38.062Z,6.70
2018-10-19T09:16:38.037Z,5.60
2018-10-19T09:17:37.811Z,6.30
2018-10-19T09:18:37.843Z,6.00
2018-10-19T09:19:37.765Z,5.50
2018-10-19T09:20:37.743Z,5.40
2018-10-19T09:21:37.724Z,5.80
2018-10-19T09:22:37.709Z,5.10
2018-10-19T09:23:37.678Z,5.60
2018-10-19T09:24:37.655Z,5.50
2018-10-19T09:25:37.630Z,5.00
2018-10-19T09:26:37.608Z,5.20
2018-10-19T09:27:37.598Z,5.20
2018-10-19T09:28:37.765Z,5.10
2018-10-19T09:29:37.807Z,4.80
2018-10-19T09:30:37.518Z,4.60
2018-10-19T09:31:37.496Z,5.10
2018-10-19T09:32:37.676Z,4.90
2018-10-19T09:33:37.454Z,5.30
2018-10-19T09:34:37.432Z,4.60
2018-10-19T09:35:37.702Z,5.30
2018-10-19T09:36:37.694Z,5.50
2018-10-19T09:37:37.567Z,5.90
2018-10-19T09:38:37.548Z,5.30
2018-10-19T09:39:37.522Z,4.20
2018-10-19T09:40:37.501Z,4.50
2018-10-19T09:41:37.485Z,4.50
2018-10-19T09:42:37.458Z,4.30
2018-10-19T09:43:37.434Z,5.00
2018-10-19T09:44:37.431Z,5.30
2018-10-19T09:45:37.392Z,4.50
2018-10-19T09:46:37.370Z,5.10
2018-10-19T09:47:37.445Z,5.10
2018-10-19T09:48:37.119Z,5.50
2018-10-19T09:49:37.298Z,4.70
2018-10-19T09:50:37.073Z,5.00
2018-10-19T09:51:37.054Z,4.70
2018-10-19T09:52:37.029Z,5.20
2018-10-19T09:53:37.011Z,4.50
2018-10-19T09:54:36.992Z,4.80
2018-10-19T09:55:36.964Z,5.10
2018-10-19T09:56:37.954Z,5.00
2018-10-19T09:57:37.120Z,4.50
2018-10-19T09:58:39.720Z,4.50
2018-10-19T09:59:37.074Z,4.30
2018-10-19T10:00:37.053Z,4.30
2018-10-19T10:01:37.041Z,4.10
2018-10-19T10:02:37.012Z,4.10
2018-10-19T10:03:36.792Z,3.90
2018-10-19T10:04:36.766Z,4.30
2018-10-19T10:05:36.750Z,4.40
2018-10-19T10:06:36.723Z,4.80
2018-10-19T10:07:36.898Z,4.00
2018-10-19T10:08:36.684Z,4.10
2018-10-19T10:09:36.653Z,4.40
2018-10-19T10:10:36.629Z,4.60
2018-10-19T10:11:36.611Z,5.10
2018-10-19T10:12:36.786Z,4.70
2018-10-19T10:13:36.564Z,4.80
2018-10-19T10:14:36.788Z,4.60
2018-10-19T10:15:36.650Z,4.40
2018-10-19T10:16:36.700Z,5.00
2018-10-19T10:17:36.682Z,4.20
2018-10-19T10:18:36.659Z,4.80
2018-10-19T10:21:43.088Z,4.40
2018-10-19T10:22:42.853Z,4.70
2018-10-19T10:23:42.839Z,4.50
2018-10-19T10:24:42.925Z,4.40
2018-10-19T10:25:42.783Z,4.70
2018-10-19T10:26:42.761Z,5.60
2018-10-19T10:27:42.734Z,4.90
2018-10-19T10:28:42.707Z,4.70
2018-10-19T10:29:42.691Z,4.80
2018-10-19T10:30:42.657Z,4.90
2018-10-19T10:31:42.640Z,5.00
2018-10-19T10:32:42.614Z,4.00
2018-10-19T10:33:42.584Z,4.40
2018-10-19T10:34:42.558Z,4.50
2018-10-19T10:35:42.535Z,4.00
2018-10-19T10:36:42.513Z,4.00
2018-10-19T10:37:42.485Z,3.90
2018-10-19T10:38:42.519Z,4.50
2018-10-19T10:39:42.439Z,4.40
2018-10-19T10:40:42.407Z,4.00
2018-10-19T10:41:42.382Z,3.90
2018-10-19T10:42:42.356Z,4.10
2018-10-19T10:43:42.331Z,4.60
2018-10-19T10:44:42.308Z,4.40
2018-10-19T10:45:42.284Z,4.50
2018-10-19T10:46:42.258Z,4.60
2018-10-19T10:47:42.232Z,4.40
2018-10-19T10:48:42.212Z,4.60
2018-10-19T10:49:42.385Z,4.80
2018-10-19T10:56:19.573Z,5.20
2018-10-19T10:57:19.345Z,4.40
2018-10-19T10:58:19.328Z,5.30
2018-10-19T11:02:50.260Z,4.30
2018-10-19T11:07:23.755Z,4.10
2018-10-19T11:08:20.976Z,4.10
2018-10-19T11:09:20.951Z,4.00
2018-10-19T11:10:20.947Z,4.60
2018-10-19T11:11:20.912Z,4.00
2018-10-19T11:12:20.888Z,4.10
2018-10-19T11:13:21.072Z,3.90
2018-10-19T11:14:20.844Z,3.60
2018-10-19T11:15:20.825Z,4.30
2018-10-19T11:16:20.803Z,4.20
2018-10-19T11:17:20.786Z,3.90
2018-10-19T11:18:20.564Z,3.50
2018-10-19T11:19:20.542Z,4.00
2018-10-19T11:20:20.521Z,4.00
2018-10-19T11:21:20.706Z,3.50
2018-10-19T11:22:20.482Z,3.80
2018-10-19T11:23:20.664Z,3.80
2018-10-19T11:24:20.649Z,3.80
2018-10-19T11:25:20.640Z,3.70
2018-10-19T11:27:03.571Z,4.10
2018-10-19T11:28:02.747Z,4.20
2018-10-19T11:29:02.724Z,3.70
2018-10-19T11:30:02.704Z,3.90
2018-10-19T11:31:02.769Z,4.00
2018-10-19T11:32:02.664Z,3.70
2018-10-19T11:33:44.799Z,4.10
2018-10-19T11:34:48.211Z,4.00
2018-10-19T11:36:26.970Z,4.20
2018-10-19T11:37:26.948Z,4.40
2018-10-19T11:38:26.881Z,4.00
2018-10-19T11:39:26.875Z,4.10
2018-10-19T11:40:26.846Z,3.80
2018-10-19T11:42:08.981Z,4.10
2018-10-19T11:43:11.670Z,4.20
2018-10-19T11:44:08.948Z,4.30
2018-10-19T11:45:08.929Z,3.90
2018-10-19T11:46:08.985Z,4.00
2018-10-19T11:47:08.895Z,4.10
2018-10-19T11:48:08.701Z,3.80
2018-10-19T11:49:08.677Z,3.70
2018-10-19T11:50:08.633Z,4.00
2018-10-19T11:51:08.623Z,4.40
2018-10-19T11:52:10.168Z,4.30
2018-10-19T11:53:08.781Z,4.30
2018-10-19T11:54:08.762Z,4.30
2018-10-19T11:55:08.652Z,4.10
2018-10-19T11:56:08.722Z,4.70
2018-10-19T11:57:08.786Z,4.50
2018-10-19T11:58:08.769Z,4.10
2018-10-19T11:59:08.462Z,4.30
2018-10-19T12:00:08.647Z,4.50
2018-10-19T12:01:50.771Z,4.50
2018-10-19T12:03:32.936Z,4.50
2018-10-19T12:04:32.678Z,4.50
2018-10-19T12:05:32.667Z,4.70
2018-10-19T12:06:32.839Z,4.10
2018-10-19T12:07:32.817Z,4.20
2018-10-19T12:08:32.597Z,4.40
2018-10-19T12:09:32.773Z,3.70
2018-10-19T12:10:33.216Z,4.30
2018-10-19T12:11:32.731Z,4.60
2018-10-19T12:12:32.507Z,4.70
2018-10-19T12:14:14.838Z,4.50
2018-10-19T12:16:17.530Z,4.30
2018-10-19T12:17:14.765Z,3.80
2018-10-19T12:19:56.872Z,4.50
2018-10-19T12:23:38.958Z,4.60
2018-10-19T12:24:38.756Z,4.50
2018-10-19T12:25:38.914Z,4.70
2018-10-19T12:26:38.909Z,4.60
2018-10-19T12:27:38.870Z,3.90
2018-10-19T12:28:38.647Z,4.00
2018-10-19T12:29:38.826Z,4.00
2018-10-19T12:30:38.603Z,4.40
2018-10-19T12:31:38.578Z,3.90
2018-10-19T12:32:38.561Z,4.40
2018-10-19T12:33:38.536Z,3.80
2018-10-19T12:34:38.516Z,4.60
2018-10-19T12:35:38.579Z,4.50
2018-10-19T12:36:38.471Z,4.40
2018-10-19T12:37:38.461Z,4.60
2018-10-19T12:38:38.432Z,4.60
2018-10-19T12:41:02.932Z,4.70
2018-10-19T12:42:02.687Z,4.30
2018-10-19T12:43:02.914Z,4.20
2018-10-19T12:44:02.847Z,4.90
2018-10-19T12:45:05.486Z,4.80
2018-10-19T12:46:02.799Z,4.20
2018-10-19T12:50:33.534Z,4.40
2018-10-19T12:51:33.508Z,4.50
2018-10-19T12:52:33.279Z,5.50
2018-10-19T12:53:36.081Z,5.30
2018-10-19T12:55:15.666Z,3.90
2018-10-19T12:56:15.357Z,3.90
2018-10-19T12:57:16.301Z,3.80
2018-10-19T12:58:15.328Z,4.00
2018-10-19T12:59:15.566Z,4.10
2018-10-19T13:00:15.259Z,4.80
2018-10-19T13:01:15.537Z,4.10
2018-10-19T13:02:15.211Z,4.20
2018-10-19T13:03:15.545Z,4.80
2018-10-19T13:04:15.362Z,4.10
2018-10-19T13:05:15.336Z,3.70
2018-10-19T13:06:15.112Z,4.00
2018-10-19T13:07:15.131Z,4.10
2018-10-19T13:08:15.061Z,4.40
2018-10-19T13:09:15.349Z,4.00
2018-10-19T13:10:15.216Z,4.00
2018-10-19T13:11:15.191Z,4.00
2018-10-19T13:12:15.163Z,4.20
2018-10-19T13:13:15.000Z,4.10
2018-10-19T13:14:14.909Z,3.70
2018-10-19T13:15:14.935Z,4.10
2018-10-19T13:16:14.992Z,4.00
2018-10-19T13:17:14.835Z,4.10
2018-10-19T13:18:14.992Z,4.50
2018-10-19T13:19:14.883Z,4.00
2018-10-19T13:20:14.758Z,3.90
2018-10-19T13:21:14.865Z,4.20
2018-10-19T13:22:14.707Z,3.80
2018-10-19T13:23:14.680Z,3.10
2018-10-19T13:24:14.783Z,4.30
2018-10-19T13:25:14.635Z,4.10
2018-10-19T13:26:14.603Z,4.20
2018-10-19T13:27:14.638Z,4.00
2018-10-19T13:28:14.552Z,4.00
2018-10-19T13:29:14.526Z,3.80
2018-10-19T13:30:14.640Z,3.80
2018-10-19T13:31:14.478Z,3.60
2018-10-19T13:32:14.457Z,3.70
2018-10-19T13:33:14.508Z,3.50
2018-10-19T13:34:14.454Z,3.90
2018-10-19T13:35:14.374Z,4.00
2018-10-19T13:36:14.421Z,3.90
2018-10-19T13:37:14.322Z,3.80
2018-10-19T13:38:14.503Z,3.70
2018-10-19T13:39:14.648Z,3.70
2018-10-19T13:40:14.249Z,4.00
2018-10-19T13:41:14.226Z,3.80
2018-10-19T13:42:14.202Z,3.40
2018-10-19T13:43:14.381Z,3.90
2018-10-19T13:44:14.369Z,3.40
2018-10-19T13:45:14.444Z,3.40
2018-10-19T13:47:38.630Z,3.80
2018-10-19T13:48:38.386Z,3.60
2018-10-19T13:49:38.366Z,4.40
2018-10-19T14:30:41.170Z,3.00